createdAt,value
2023-03-12T00:01:01.461Z,6.60
2023-03-12T00:03:03.182Z,6.60
2023-03-12T00:05:05.212Z,6.60
2023-03-12T00:07:08.740Z,6.60
2023-03-12T00:09:10.380Z,6.60
2023-03-12T00:11:16.796Z,6.60
2023-03-12T00:13:18.436Z,6.60
2023-03-12T00:15:20.124Z,6.60
2023-03-12T00:17:21.844Z,6.60
2023-03-12T00:19:23.482Z,6.60
2023-03-12T00:21:25.187Z,6.60
2023-03-12T00:23:27.110Z,6.60
2023-03-12T00:25:28.854Z,6.60
2023-03-12T00:27:30.650Z,6.60
2023-03-12T00:29:32.360Z,6.50
2023-03-12T00:31:34.061Z,6.50
2023-03-12T00:33:35.776Z,6.50
2023-03-12T00:35:38.169Z,6.60
2023-03-12T00:37:39.940Z,6.50
2023-03-12T00:39:41.621Z,6.50
2023-03-12T00:41:43.421Z,6.50
2023-03-12T00:43:45.079Z,6.50
2023-03-12T00:45:46.839Z,6.50
2023-03-12T00:47:48.446Z,6.50
2023-03-12T00:49:50.143Z,6.50
2023-03-12T00:51:51.824Z,6.50
2023-03-12T00:53:53.671Z,6.50
2023-03-12T00:55:55.315Z,6.50
2023-03-12T00:57:56.920Z,6.50
2023-03-12T00:59:58.615Z,6.40
2023-03-12T01:02:00.624Z,6.40
2023-03-12T01:04:02.488Z,6.40
2023-03-12T01:06:04.428Z,6.40
2023-03-12T01:08:09.066Z,6.40
2023-03-12T01:10:11.863Z,6.40
2023-03-12T01:12:13.560Z,6.40
2023-03-12T01:14:15.196Z,6.40
2023-03-12T01:16:16.973Z,6.40
2023-03-12T01:18:18.619Z,6.40
2023-03-12T01:20:20.549Z,6.50
2023-03-12T01:22:22.166Z,6.40
2023-03-12T01:24:23.893Z,6.40
2023-03-12T01:26:25.629Z,6.40
2023-03-12T01:28:27.339Z,6.50
2023-03-12T01:30:29.575Z,6.50
2023-03-12T01:32:31.286Z,6.50
2023-03-12T01:34:35.371Z,6.50
2023-03-12T01:36:37.041Z,6.50
2023-03-12T01:38:38.752Z,6.50
2023-03-12T01:40:40.857Z,6.50
2023-03-12T01:42:42.571Z,6.40
2023-03-12T01:44:51.688Z,6.50
2023-03-12T01:46:53.420Z,6.50
2023-03-12T01:48:58.416Z,6.50
2023-03-12T01:51:01.592Z,6.50
2023-03-12T01:53:03.250Z,6.50
2023-03-12T01:55:06.817Z,6.50
2023-03-12T01:57:20.107Z,6.60
2023-03-12T01:59:24.713Z,6.50
2023-03-12T02:01:27.438Z,6.60
2023-03-12T02:03:30.191Z,6.50
2023-03-12T02:05:45.387Z,6.60
2023-03-12T02:07:47.262Z,6.60
2023-03-12T02:09:49.476Z,6.60
2023-03-12T02:11:51.228Z,6.60
2023-03-12T02:13:54.437Z,6.60
2023-03-12T02:15:56.369Z,6.60
2023-03-12T02:17:58.062Z,6.60
2023-03-12T02:19:59.664Z,6.60
2023-03-12T02:22:01.660Z,6.60
2023-03-12T02:24:12.233Z,6.60
2023-03-12T02:26:15.003Z,6.70
2023-03-12T02:28:18.426Z,6.70
2023-03-12T02:30:20.173Z,6.70
2023-03-12T02:32:24.327Z,6.70
2023-03-12T02:34:26.075Z,6.80
2023-03-12T02:36:28.000Z,6.80
2023-03-12T02:38:34.700Z,6.70
2023-03-12T02:40:42.072Z,6.70
2023-03-12T02:42:45.527Z,6.70
2023-03-12T02:44:47.269Z,6.70
2023-03-12T02:46:51.103Z,6.70
2023-03-12T02:48:53.562Z,6.70
2023-03-12T02:50:55.281Z,6.80
2023-03-12T02:52:56.921Z,6.70
2023-03-12T02:54:58.766Z,6.70
2023-03-12T02:57:00.482Z,6.80
2023-03-12T02:59:04.607Z,6.80
2023-03-12T03:01:09.009Z,6.80
2023-03-12T03:03:10.765Z,6.80
2023-03-12T03:05:12.482Z,6.80
2023-03-12T03:07:14.827Z,6.80
2023-03-12T03:09:16.756Z,6.80
2023-03-12T03:11:18.801Z,6.80
2023-03-12T03:13:20.571Z,6.90
2023-03-12T03:15:22.360Z,6.80
2023-03-12T03:17:24.445Z,6.80
2023-03-12T03:19:26.411Z,6.90
2023-03-12T03:21:28.069Z,6.90
2023-03-12T03:23:29.781Z,6.90
2023-03-12T03:25:32.959Z,6.90
2023-03-12T03:27:35.225Z,6.90
2023-03-12T03:29:37.003Z,6.90
2023-03-12T03:31:38.679Z,6.90
2023-03-12T03:33:40.569Z,6.90
2023-03-12T03:35:43.340Z,7.00
2023-03-12T03:37:45.376Z,7.00
2023-03-12T03:39:47.235Z,7.00
2023-03-12T03:41:48.918Z,7.00
2023-03-12T03:43:56.254Z,7.00
2023-03-12T03:46:02.496Z,7.00
2023-03-12T03:48:06.455Z,7.00
2023-03-12T03:50:08.741Z,7.00
2023-03-12T03:52:10.623Z,7.00
2023-03-12T03:54:12.447Z,7.00
2023-03-12T03:56:15.663Z,7.00
2023-03-12T03:58:21.918Z,7.10
2023-03-12T04:00:23.643Z,7.10
2023-03-12T04:02:27.325Z,7.10
2023-03-12T04:04:29.234Z,7.10
2023-03-12T04:06:31.015Z,7.10
2023-03-12T04:08:35.380Z,7.10
2023-03-12T04:10:37.927Z,7.10
2023-03-12T04:12:39.697Z,7.10
2023-03-12T04:14:42.051Z,7.10
2023-03-12T04:16:44.626Z,7.20
2023-03-12T04:18:46.694Z,7.10
2023-03-12T04:20:50.222Z,7.10
2023-03-12T04:22:51.975Z,7.20
2023-03-12T04:24:53.638Z,7.20
2023-03-12T04:26:55.476Z,7.20
2023-03-12T04:28:57.176Z,7.20
2023-03-12T04:31:00.238Z,7.20
2023-03-12T04:33:05.712Z,7.20
2023-03-12T04:35:07.610Z,7.20
2023-03-12T04:37:11.316Z,7.30
2023-03-12T04:39:13.302Z,7.30
2023-03-12T04:41:15.893Z,7.30
2023-03-12T04:43:38.056Z,7.30
2023-03-12T04:45:39.844Z,7.30
2023-03-12T04:47:41.728Z,7.30
2023-03-12T04:49:44.475Z,7.40
2023-03-12T04:51:46.094Z,7.40
2023-03-12T04:53:48.086Z,7.40
2023-03-12T04:55:51.094Z,7.40
2023-03-12T04:57:53.201Z,7.40
2023-03-12T04:59:55.020Z,7.40
2023-03-12T05:01:56.765Z,7.40
2023-03-12T05:04:02.894Z,7.40
2023-03-12T05:06:04.760Z,7.40
2023-03-12T05:08:06.508Z,7.40
2023-03-12T05:10:10.107Z,7.40
2023-03-12T05:12:11.911Z,7.40
2023-03-12T05:14:13.767Z,7.40
2023-03-12T05:16:17.364Z,7.50
2023-03-12T05:18:21.346Z,7.40
2023-03-12T05:20:23.211Z,7.50
2023-03-12T05:22:24.972Z,7.40
2023-03-12T05:24:27.389Z,7.50
2023-03-12T05:26:31.595Z,7.50
2023-03-12T05:28:44.933Z,7.50
2023-03-12T05:30:47.267Z,7.40
2023-03-12T05:32:49.228Z,7.50
2023-03-12T05:34:51.152Z,7.50
2023-03-12T05:36:52.990Z,7.50
2023-03-12T05:38:58.209Z,7.50
2023-03-12T05:41:02.149Z,7.50
2023-03-12T05:43:06.569Z,7.50
2023-03-12T05:45:09.027Z,7.50
2023-03-12T05:47:12.400Z,7.50
2023-03-12T05:49:15.805Z,7.50
2023-03-12T05:51:17.487Z,7.50
2023-03-12T05:53:19.250Z,7.50
2023-03-12T05:55:21.882Z,7.50
2023-03-12T05:57:23.623Z,7.40
2023-03-12T05:59:25.296Z,7.40
2023-03-12T06:01:29.160Z,7.40
2023-03-12T06:03:33.219Z,7.40
2023-03-12T06:05:35.609Z,7.40
2023-03-12T06:07:37.750Z,7.40
2023-03-12T06:09:39.703Z,7.40
2023-03-12T06:11:41.401Z,7.30
2023-03-12T06:13:43.219Z,7.30
2023-03-12T06:15:45.046Z,7.30
2023-03-12T06:17:46.819Z,7.30
2023-03-12T06:19:50.859Z,7.20
2023-03-12T06:21:53.099Z,7.30
2023-03-12T06:23:55.198Z,7.20
2023-03-12T06:26:01.783Z,7.20
2023-03-12T06:28:03.990Z,7.20
2023-03-12T06:30:05.854Z,7.20
2023-03-12T06:32:07.764Z,7.20
2023-03-12T06:34:10.278Z,7.20
2023-03-12T06:36:12.097Z,7.20
2023-03-12T06:38:13.849Z,7.20
2023-03-12T06:40:15.559Z,7.20
2023-03-12T06:42:18.414Z,7.20
2023-03-12T06:44:20.057Z,7.20
2023-03-12T06:46:21.882Z,7.30
2023-03-12T06:48:24.233Z,7.30
2023-03-12T06:50:25.898Z,7.30
2023-03-12T06:52:27.590Z,7.30
2023-03-12T06:54:29.308Z,7.30
2023-03-12T06:56:31.229Z,7.40
2023-03-12T06:58:32.926Z,7.40
2023-03-12T07:00:35.025Z,7.40
2023-03-12T07:02:36.960Z,7.40
2023-03-12T07:04:38.703Z,7.40
2023-03-12T07:06:40.428Z,7.40
2023-03-12T07:08:42.953Z,7.40
2023-03-12T07:10:45.041Z,7.40
2023-03-12T07:12:46.669Z,7.40
2023-03-12T07:14:48.329Z,7.50
2023-03-12T07:16:50.074Z,7.40
2023-03-12T07:18:52.235Z,7.40
2023-03-12T07:20:53.935Z,7.50
2023-03-12T07:22:55.571Z,7.40
2023-03-12T07:24:57.196Z,7.40
2023-03-12T07:26:58.820Z,7.40
2023-03-12T07:29:00.557Z,7.40
2023-03-12T07:31:02.993Z,7.40
2023-03-12T07:33:05.691Z,7.40
2023-03-12T07:35:07.481Z,7.40
2023-03-12T07:37:09.125Z,7.40
2023-03-12T07:39:10.853Z,7.40
2023-03-12T07:41:12.662Z,7.40
2023-03-12T07:43:15.495Z,7.50
2023-03-12T07:45:18.545Z,7.40
2023-03-12T07:47:24.173Z,7.50
2023-03-12T07:49:27.572Z,7.50
2023-03-12T07:51:29.339Z,7.50
2023-03-12T07:53:31.025Z,7.50
2023-03-12T07:55:33.577Z,7.50
2023-03-12T07:57:35.319Z,7.50
2023-03-12T07:59:37.081Z,7.50
2023-03-12T08:01:38.830Z,7.50
2023-03-12T08:03:40.622Z,7.60
2023-03-12T08:05:42.860Z,7.60
2023-03-12T08:07:45.234Z,7.60
2023-03-12T08:09:49.520Z,7.60
2023-03-12T08:11:51.605Z,7.60
2023-03-12T08:13:53.317Z,7.60
2023-03-12T08:15:55.182Z,7.60
2023-03-12T08:17:56.823Z,7.60
2023-03-12T08:19:58.513Z,7.70
2023-03-12T08:22:00.160Z,7.70
2023-03-12T08:24:01.887Z,7.70
2023-03-12T08:26:03.545Z,7.70
2023-03-12T08:28:05.401Z,7.70
2023-03-12T08:30:07.470Z,7.70
2023-03-12T08:32:10.688Z,7.70
2023-03-12T08:34:13.103Z,7.70
2023-03-12T08:36:14.765Z,7.70
2023-03-12T08:38:16.522Z,7.80
2023-03-12T08:40:18.760Z,7.80
2023-03-12T08:42:20.438Z,7.80
2023-03-12T08:44:22.792Z,7.80
2023-03-12T08:46:24.565Z,7.70
2023-03-12T08:48:26.718Z,7.80
2023-03-12T08:50:30.882Z,7.80
2023-03-12T08:52:32.578Z,7.80
2023-03-12T08:54:34.308Z,7.80
2023-03-12T08:56:38.618Z,7.80
2023-03-12T08:58:40.434Z,7.80
2023-03-12T09:00:42.077Z,7.80
2023-03-12T09:02:44.790Z,7.80
2023-03-12T09:04:49.953Z,7.90
2023-03-12T09:06:51.653Z,7.90
2023-03-12T09:08:53.448Z,7.90
2023-03-12T09:10:55.280Z,7.90
2023-03-12T09:12:56.929Z,7.90
2023-03-12T09:15:03.459Z,7.90
2023-03-12T09:17:06.022Z,7.90
2023-03-12T09:19:07.738Z,7.90
2023-03-12T09:21:09.417Z,7.90
2023-03-12T09:23:11.153Z,8.00
2023-03-12T09:25:13.075Z,8.00
2023-03-12T09:27:14.876Z,8.00
2023-03-12T09:29:16.496Z,8.00
2023-03-12T09:31:18.173Z,8.00
2023-03-12T09:33:20.053Z,8.00
2023-03-12T09:35:21.763Z,8.10
2023-03-12T09:37:24.411Z,8.00
2023-03-12T09:39:26.293Z,8.00
2023-03-12T09:41:32.545Z,8.10
2023-03-12T09:43:37.750Z,8.10
2023-03-12T09:45:42.609Z,8.10
2023-03-12T09:47:48.875Z,8.10
2023-03-12T09:49:54.196Z,8.10
2023-03-12T09:51:58.186Z,8.10
2023-03-12T09:54:03.016Z,8.10
2023-03-12T09:56:10.083Z,8.10
2023-03-12T09:58:32.360Z,8.10
2023-03-12T10:00:35.125Z,8.10
2023-03-12T10:02:48.292Z,8.10
2023-03-12T10:04:59.848Z,8.10
2023-03-12T10:07:05.490Z,8.10
2023-03-12T10:09:07.208Z,8.20
2023-03-12T10:11:18.440Z,8.20
2023-03-12T10:13:43.258Z,8.20
2023-03-12T10:16:03.303Z,8.20
2023-03-12T10:18:23.908Z,8.20
2023-03-12T10:20:25.734Z,8.20
2023-03-12T10:22:33.515Z,8.20
2023-03-12T10:24:35.699Z,8.20
2023-03-12T10:26:42.840Z,8.20
2023-03-12T10:29:11.655Z,8.20
2023-03-12T10:31:20.098Z,8.20
2023-03-12T10:33:23.104Z,8.20
2023-03-12T10:35:26.135Z,8.20
2023-03-12T10:37:43.187Z,8.20
2023-03-12T10:39:45.794Z,8.20
2023-03-12T10:41:48.391Z,8.20
2023-03-12T10:43:50.094Z,8.20
2023-03-12T10:45:57.885Z,8.20
2023-03-12T10:48:02.060Z,8.20
2023-03-12T10:50:12.105Z,8.20
2023-03-12T10:52:17.270Z,8.20
2023-03-12T10:54:38.350Z,8.30
2023-03-12T10:56:48.665Z,8.30
2023-03-12T10:58:51.520Z,8.30
2023-03-12T11:00:57.239Z,8.30
2023-03-12T11:02:58.883Z,8.40
2023-03-12T11:05:01.262Z,8.40
2023-03-12T11:07:04.386Z,8.40
2023-03-12T11:09:21.103Z,8.40
2023-03-12T11:11:30.611Z,8.40
2023-03-12T11:13:39.706Z,8.50
2023-03-12T11:15:42.933Z,8.50
2023-03-12T11:17:44.758Z,8.50
2023-03-12T11:19:46.528Z,8.60
2023-03-12T11:21:56.869Z,8.60
2023-03-12T11:23:58.869Z,8.60
2023-03-12T11:26:01.866Z,8.70
2023-03-12T11:28:07.240Z,8.70
2023-03-12T11:30:12.462Z,8.70
2023-03-12T11:32:18.780Z,8.70
2023-03-12T11:34:28.911Z,8.80
2023-03-12T11:36:45.229Z,8.80
2023-03-12T11:39:13.296Z,8.80
2023-03-12T11:41:14.992Z,8.80
2023-03-12T11:43:41.570Z,8.90
2023-03-12T11:46:02.444Z,8.90
2023-03-12T11:48:10.779Z,8.90
2023-03-12T11:50:24.574Z,8.90
2023-03-12T11:52:32.558Z,8.90
2023-03-12T11:54:40.204Z,9.00
2023-03-12T11:56:42.125Z,9.00
2023-03-12T11:58:53.940Z,9.00
2023-03-12T12:00:55.536Z,9.10
2023-03-12T12:02:57.416Z,9.10
2023-03-12T12:05:08.274Z,9.10
2023-03-12T12:07:10.029Z,9.20
2023-03-12T12:09:21.221Z,9.20
2023-03-12T12:11:29.061Z,9.30
2023-03-12T12:13:46.273Z,9.30
2023-03-12T12:15:48.967Z,9.30
2023-03-12T12:18:01.534Z,9.40
2023-03-12T12:20:10.204Z,9.40
2023-03-12T12:22:18.213Z,9.50
2023-03-12T12:24:45.562Z,9.50
2023-03-12T12:26:53.496Z,9.50
2023-03-12T12:29:05.418Z,9.60
2023-03-12T12:31:19.180Z,9.60
2023-03-12T12:33:32.943Z,9.60
2023-03-12T12:35:36.976Z,9.70
2023-03-12T12:37:41.186Z,9.70
2023-03-12T12:39:47.117Z,9.80
2023-03-12T12:41:53.670Z,9.80
2023-03-12T12:44:00.638Z,9.90
2023-03-12T12:46:04.482Z,9.90
2023-03-12T12:48:15.485Z,9.90
2023-03-12T12:50:19.811Z,10.00
2023-03-12T12:52:21.987Z,10.10
2023-03-12T12:54:26.544Z,10.10
2023-03-12T12:56:41.481Z,10.20
2023-03-12T12:58:45.943Z,10.20
2023-03-12T13:00:49.614Z,10.30
2023-03-12T13:02:52.382Z,10.30
2023-03-12T13:04:58.169Z,10.30
2023-03-12T13:07:00.058Z,10.40
2023-03-12T13:09:13.070Z,10.50
2023-03-12T13:11:18.649Z,10.50
2023-03-12T13:13:23.554Z,10.50
2023-03-12T13:15:31.520Z,10.50
2023-03-12T13:17:34.334Z,10.60
2023-03-12T13:19:43.221Z,10.60
2023-03-12T13:21:58.919Z,10.60
2023-03-12T13:24:00.774Z,10.70
2023-03-12T13:26:11.390Z,10.70
2023-03-12T13:28:32.323Z,10.70
2023-03-12T13:30:34.019Z,10.70
2023-03-12T13:32:37.284Z,10.80
2023-03-12T13:34:45.586Z,10.80
2023-03-12T13:36:50.327Z,10.80
2023-03-12T13:38:52.785Z,10.90
2023-03-12T13:40:55.828Z,10.90
2023-03-12T13:43:11.843Z,11.00
2023-03-12T13:45:24.972Z,11.10
2023-03-12T13:47:28.622Z,11.10
2023-03-12T13:49:45.495Z,11.20
2023-03-12T13:51:54.458Z,11.30
2023-03-12T13:53:58.795Z,11.30
2023-03-12T13:56:05.373Z,11.40
2023-03-12T13:58:26.983Z,11.50
2023-03-12T14:00:36.277Z,11.60
2023-03-12T14:02:42.110Z,11.60
2023-03-12T14:04:44.207Z,11.70
2023-03-12T14:07:04.778Z,11.80
2023-03-12T14:09:13.362Z,11.90
2023-03-12T14:11:17.868Z,12.10
2023-03-12T14:13:25.810Z,12.10
2023-03-12T14:15:30.712Z,12.20
2023-03-12T14:17:33.501Z,12.30
2023-03-12T14:19:35.891Z,12.40
2023-03-12T14:21:40.059Z,12.40
2023-03-12T14:23:52.970Z,12.50
2023-03-12T14:25:57.463Z,12.60
2023-03-12T14:27:59.846Z,12.70
2023-03-12T14:30:11.582Z,12.70
2023-03-12T14:32:19.260Z,12.70
2023-03-12T14:34:22.332Z,12.70
2023-03-12T14:36:26.645Z,12.80
2023-03-12T14:38:51.574Z,12.80
2023-03-12T14:41:01.024Z,12.80
2023-03-12T14:43:02.861Z,12.80
2023-03-12T14:45:07.380Z,12.80
2023-03-12T14:47:11.217Z,12.80
2023-03-12T14:49:20.120Z,12.80
2023-03-12T14:51:26.355Z,12.80
2023-03-12T14:53:30.301Z,12.70
2023-03-12T14:55:31.996Z,12.70
2023-03-12T14:57:35.963Z,12.80
2023-03-12T14:59:39.084Z,12.80
2023-03-12T15:01:40.922Z,12.70
2023-03-12T15:03:51.750Z,12.80
2023-03-12T15:05:53.829Z,12.80
2023-03-12T15:07:58.845Z,12.80
2023-03-12T15:10:02.590Z,12.80
2023-03-12T15:12:06.100Z,12.80
2023-03-12T15:14:09.636Z,12.80
2023-03-12T15:16:11.408Z,12.80
2023-03-12T15:18:18.487Z,12.80
2023-03-12T15:20:21.076Z,12.80
2023-03-12T15:22:24.738Z,12.80
2023-03-12T15:24:26.724Z,12.80
2023-03-12T15:26:30.000Z,12.80
2023-03-12T15:28:31.855Z,12.80
2023-03-12T15:30:34.259Z,12.90
2023-03-12T15:32:36.093Z,12.90
2023-03-12T15:34:38.914Z,12.90
2023-03-12T15:36:46.255Z,12.90
2023-03-12T15:38:56.878Z,12.90
2023-03-12T15:41:01.018Z,12.90
2023-03-12T15:43:05.779Z,12.90
2023-03-12T15:45:17.814Z,12.90
2023-03-12T15:47:27.849Z,12.90
2023-03-12T15:49:30.789Z,12.90
2023-03-12T15:51:36.533Z,12.90
2023-03-12T15:53:38.350Z,13.00
2023-03-12T15:55:41.806Z,13.00
2023-03-12T15:57:48.012Z,13.00
2023-03-12T15:59:55.626Z,13.00
2023-03-12T16:01:58.640Z,13.00
2023-03-12T16:04:01.195Z,13.00
2023-03-12T16:06:03.032Z,13.00
2023-03-12T16:08:22.614Z,13.10
2023-03-12T16:10:25.300Z,13.10
2023-03-12T16:12:27.068Z,13.10
2023-03-12T16:14:34.475Z,13.10
2023-03-12T16:16:36.216Z,13.10
2023-03-12T16:18:38.087Z,13.20
2023-03-12T16:20:39.962Z,13.20
2023-03-12T16:22:41.805Z,13.20
2023-03-12T16:24:43.669Z,13.20
2023-03-12T16:26:56.911Z,13.20
2023-03-12T16:28:59.100Z,13.20
2023-03-12T16:31:00.861Z,13.20
2023-03-12T16:33:06.402Z,13.20
2023-03-12T16:35:14.850Z,13.20
2023-03-12T16:37:16.717Z,13.30
2023-03-12T16:39:19.053Z,13.30
2023-03-12T16:41:21.017Z,13.30
2023-03-12T16:43:29.136Z,13.30
2023-03-12T16:45:32.163Z,13.30
2023-03-12T16:47:33.946Z,13.40
2023-03-12T16:49:35.701Z,13.40
2023-03-12T16:51:37.468Z,13.40
2023-03-12T16:53:39.224Z,13.30
2023-03-12T16:55:49.762Z,13.40
2023-03-12T16:57:53.006Z,13.40
2023-03-12T16:59:54.819Z,13.40
2023-03-12T17:01:56.639Z,13.40
2023-03-12T17:03:58.850Z,13.40
2023-03-12T17:06:00.705Z,13.40
2023-03-12T17:08:02.804Z,13.40
2023-03-12T17:10:05.399Z,13.40
2023-03-12T17:12:11.983Z,13.40
2023-03-12T17:14:21.991Z,13.40
2023-03-12T17:16:30.504Z,13.40
2023-03-12T17:18:32.951Z,13.50
2023-03-12T17:20:36.108Z,13.40
2023-03-12T17:22:37.917Z,13.40
2023-03-12T17:24:39.835Z,13.40
2023-03-12T17:26:42.584Z,13.40
2023-03-12T17:28:44.442Z,13.40
2023-03-12T17:30:47.458Z,13.40
2023-03-12T17:32:49.999Z,13.40
2023-03-12T17:34:56.452Z,13.40
2023-03-12T17:36:59.212Z,13.40
2023-03-12T17:39:01.054Z,13.40
2023-03-12T17:41:04.703Z,13.40
2023-03-12T17:43:06.603Z,13.40
2023-03-12T17:45:09.130Z,13.50
2023-03-12T17:47:10.950Z,13.40
2023-03-12T17:49:12.782Z,13.60
2023-03-12T17:51:14.633Z,13.50
2023-03-12T17:53:16.767Z,13.50
2023-03-12T17:55:18.656Z,13.50
2023-03-12T17:57:20.423Z,13.50
2023-03-12T17:59:22.276Z,13.50
2023-03-12T18:01:24.255Z,13.50
2023-03-12T18:03:26.293Z,13.50
2023-03-12T18:05:28.094Z,13.40
2023-03-12T18:07:29.898Z,13.50
2023-03-12T18:09:31.695Z,13.50
2023-03-12T18:11:33.512Z,13.40
2023-03-12T18:13:35.487Z,13.40
2023-03-12T18:15:37.617Z,13.40
2023-03-12T18:17:40.016Z,13.40
2023-03-12T18:19:41.886Z,13.40
2023-03-12T18:21:43.636Z,13.40
2023-03-12T18:23:46.106Z,13.40
2023-03-12T18:25:47.950Z,13.40
2023-03-12T18:27:49.881Z,13.40
2023-03-12T18:29:51.659Z,13.40
2023-03-12T18:31:53.577Z,13.40
2023-03-12T18:33:55.343Z,13.40
2023-03-12T18:35:57.291Z,13.30
2023-03-12T18:37:59.461Z,13.30
2023-03-12T18:40:01.271Z,13.40
2023-03-12T18:42:10.454Z,13.30
2023-03-12T18:44:16.219Z,13.30
2023-03-12T18:46:24.151Z,13.30
2023-03-12T18:48:25.990Z,13.30
2023-03-12T18:50:28.001Z,13.30
2023-03-12T18:52:29.745Z,13.30
2023-03-12T18:54:33.588Z,13.30
2023-03-12T18:56:39.993Z,13.30
2023-03-12T18:58:42.178Z,13.30
2023-03-12T19:00:44.218Z,13.30
2023-03-12T19:02:48.063Z,13.30
2023-03-12T19:04:55.519Z,13.30
2023-03-12T19:07:00.216Z,13.30
2023-03-12T19:09:02.155Z,13.30
2023-03-12T19:11:05.021Z,13.40
2023-03-12T19:13:06.991Z,13.30
2023-03-12T19:15:09.004Z,13.30
2023-03-12T19:17:10.881Z,13.30
2023-03-12T19:19:12.759Z,13.30
2023-03-12T19:21:17.138Z,13.30
2023-03-12T19:23:23.160Z,13.30
2023-03-12T19:25:25.862Z,13.30
2023-03-12T19:27:29.481Z,13.30
2023-03-12T19:29:31.406Z,13.30
2023-03-12T19:31:33.219Z,13.20
2023-03-12T19:33:35.439Z,13.20
2023-03-12T19:35:37.824Z,13.20
2023-03-12T19:37:39.657Z,13.20
2023-03-12T19:39:41.489Z,13.20
2023-03-12T19:41:43.428Z,13.20
2023-03-12T19:43:45.239Z,13.10
2023-03-12T19:45:47.588Z,13.20
2023-03-12T19:47:50.153Z,13.10
2023-03-12T19:49:51.968Z,13.20
2023-03-12T19:51:53.758Z,13.10
2023-03-12T19:53:55.651Z,13.10
2023-03-12T19:55:57.419Z,13.10
2023-03-12T19:57:59.273Z,13.10
2023-03-12T20:00:01.134Z,13.10
2023-03-12T20:02:03.100Z,13.10
2023-03-12T20:04:07.926Z,13.10
2023-03-12T20:06:10.384Z,13.10
2023-03-12T20:08:12.331Z,13.10
2023-03-12T20:10:14.546Z,13.10
2023-03-12T20:12:16.303Z,13.10
2023-03-12T20:14:18.103Z,13.10
2023-03-12T20:16:20.828Z,13.10
2023-03-12T20:18:22.615Z,13.10
2023-03-12T20:20:24.900Z,13.10
2023-03-12T20:22:26.733Z,13.10
2023-03-12T20:24:28.752Z,13.10
2023-03-12T20:26:30.616Z,13.10
2023-03-12T20:28:32.524Z,13.10
2023-03-12T20:30:37.580Z,13.10
2023-03-12T20:32:39.536Z,13.10
2023-03-12T20:34:41.336Z,13.10
2023-03-12T20:36:43.151Z,13.10
2023-03-12T20:38:47.667Z,13.10
2023-03-12T20:40:49.460Z,13.10
2023-03-12T20:42:51.265Z,13.00
2023-03-12T20:44:53.080Z,13.10
2023-03-12T20:46:54.861Z,13.10
2023-03-12T20:48:56.875Z,13.00
2023-03-12T20:50:58.796Z,13.10
2023-03-12T20:53:00.656Z,13.10
2023-03-12T20:55:02.689Z,13.00
2023-03-12T20:57:04.607Z,13.10
2023-03-12T20:59:06.397Z,13.10
2023-03-12T21:01:08.373Z,13.10
2023-03-12T21:03:12.611Z,13.10
2023-03-12T21:05:14.720Z,13.10
2023-03-12T21:07:16.504Z,13.10
2023-03-12T21:09:18.482Z,13.10
2023-03-12T21:11:20.371Z,13.10
2023-03-12T21:13:23.012Z,13.10
2023-03-12T21:15:24.850Z,13.10
2023-03-12T21:17:26.584Z,13.20
2023-03-12T21:19:31.269Z,13.10
2023-03-12T21:21:35.241Z,13.10
2023-03-12T21:23:37.920Z,13.10
2023-03-12T21:25:40.593Z,13.10
2023-03-12T21:27:50.378Z,13.10
2023-03-12T21:29:53.740Z,13.10
2023-03-12T21:31:55.626Z,13.10
2023-03-12T21:33:57.994Z,13.10
2023-03-12T21:35:59.782Z,13.10
2023-03-12T21:38:02.593Z,13.10
2023-03-12T21:40:04.984Z,13.10
2023-03-12T21:42:06.686Z,13.10
2023-03-12T21:44:08.421Z,13.10
2023-03-12T21:46:12.215Z,13.10
2023-03-12T21:48:14.061Z,13.10
2023-03-12T21:50:15.944Z,13.10
2023-03-12T21:52:17.765Z,13.10
2023-03-12T21:54:19.553Z,13.10
2023-03-12T21:56:21.342Z,13.10
2023-03-12T21:58:23.141Z,13.10
2023-03-12T22:00:24.903Z,13.10
2023-03-12T22:02:31.178Z,13.20
2023-03-12T22:04:33.087Z,13.10
2023-03-12T22:06:34.809Z,13.10
2023-03-12T22:08:37.176Z,13.10
2023-03-12T22:10:38.865Z,13.20
2023-03-12T22:12:40.718Z,13.20
2023-03-12T22:14:42.416Z,13.20
2023-03-12T22:16:44.130Z,13.20
2023-03-12T22:18:46.350Z,13.20
2023-03-12T22:21:07.723Z,13.20
2023-03-12T22:23:09.535Z,13.20
2023-03-12T22:25:11.244Z,13.20
2023-03-12T22:27:12.990Z,13.20
2023-03-12T22:29:14.666Z,13.20
2023-03-12T22:31:16.698Z,13.20
2023-03-12T22:33:18.439Z,13.20
2023-03-12T22:35:25.629Z,13.20
2023-03-12T22:37:27.268Z,13.20
2023-03-12T22:39:28.935Z,13.20
2023-03-12T22:41:30.634Z,13.30
2023-03-12T22:43:32.269Z,13.30
2023-03-12T22:45:34.191Z,13.20
2023-03-12T22:47:35.823Z,13.30
2023-03-12T22:49:37.501Z,13.30
2023-03-12T22:51:39.297Z,13.20
2023-03-12T22:53:40.921Z,13.20
2023-03-12T22:55:42.542Z,13.20
2023-03-12T22:57:44.202Z,13.20
2023-03-12T22:59:46.728Z,13.30
2023-03-12T23:01:48.442Z,13.30
2023-03-12T23:03:50.469Z,13.30
2023-03-12T23:05:52.140Z,13.30
2023-03-12T23:07:53.779Z,13.30
2023-03-12T23:09:55.399Z,13.30
2023-03-12T23:11:57.100Z,13.30
2023-03-12T23:13:58.800Z,13.30
2023-03-12T23:16:01.405Z,13.30
2023-03-12T23:18:03.208Z,13.30
2023-03-12T23:20:05.324Z,13.30
2023-03-12T23:22:06.966Z,13.30
2023-03-12T23:24:09.443Z,13.30
2023-03-12T23:26:18.325Z,13.30
2023-03-12T23:28:19.991Z,13.30
2023-03-12T23:30:21.646Z,13.30
2023-03-12T23:32:23.547Z,13.30
2023-03-12T23:34:25.566Z,13.30
2023-03-12T23:36:27.240Z,13.40
2023-03-12T23:38:29.486Z,13.30
2023-03-12T23:40:31.140Z,13.40
2023-03-12T23:42:33.292Z,13.30
2023-03-12T23:44:35.052Z,13.30
2023-03-12T23:46:36.754Z,13.40
2023-03-12T23:48:39.138Z,13.40
2023-03-12T23:50:41.192Z,13.40
2023-03-12T23:52:42.877Z,13.40
2023-03-12T23:54:44.575Z,13.40
2023-03-12T23:56:46.259Z,13.40
2023-03-12T23:58:48.433Z,13.40
